createdAt,value
2018-11-07T00:00:08.924Z,9.59
2018-11-07T00:05:11.145Z,9.58
2018-11-07T00:10:13.365Z,9.56
2018-11-07T00:15:15.923Z,9.61
2018-11-07T00:20:18.099Z,9.56
2018-11-07T00:25:20.250Z,9.60
2018-11-07T00:30:22.411Z,9.48
2018-11-07T00:35:24.458Z,9.47
2018-11-07T00:40:26.564Z,9.40
2018-11-07T00:45:28.682Z,9.45
2018-11-07T00:50:30.785Z,9.48
2018-11-07T00:55:32.906Z,9.39
2018-11-07T01:00:35.050Z,9.39
2018-11-07T01:05:37.175Z,9.38
2018-11-07T01:10:39.555Z,9.41
2018-11-07T01:15:41.696Z,9.29
2018-11-07T01:20:43.853Z,9.34
2018-11-07T01:25:46.047Z,9.37
2018-11-07T01:30:48.167Z,9.30
2018-11-07T01:35:50.300Z,9.38
2018-11-07T01:40:52.442Z,9.35
2018-11-07T01:45:54.538Z,9.35
2018-11-07T01:50:56.654Z,9.32
2018-11-07T01:55:58.768Z,9.26
2018-11-07T02:01:00.921Z,9.18
2018-11-07T02:06:03.403Z,9.21
2018-11-07T02:11:05.551Z,9.08
2018-11-07T02:16:07.716Z,9.05
2018-11-07T02:21:09.892Z,9.01
2018-11-07T02:26:12.150Z,9.07
2018-11-07T02:31:14.252Z,9.20
2018-11-07T02:36:16.350Z,9.07
2018-11-07T02:41:18.539Z,8.84
2018-11-07T02:46:20.676Z,8.94
2018-11-07T02:51:22.807Z,9.00
2018-11-07T02:56:24.935Z,9.01
2018-11-07T03:01:27.970Z,9.02
2018-11-07T03:06:30.124Z,9.00
2018-11-07T03:11:32.251Z,9.03
2018-11-07T03:16:34.381Z,8.96
2018-11-07T03:21:36.494Z,8.99
2018-11-07T03:26:38.599Z,9.00
2018-11-07T03:31:40.691Z,8.99
2018-11-07T03:36:42.820Z,8.90
2018-11-07T03:41:44.941Z,8.95
2018-11-07T03:46:47.066Z,9.10
2018-11-07T03:51:49.154Z,8.98
2018-11-07T03:56:51.271Z,8.88
2018-11-07T04:01:53.362Z,8.85
2018-11-07T04:06:55.496Z,8.86
2018-11-07T04:11:57.601Z,8.79
2018-11-07T04:16:59.731Z,8.76
2018-11-07T04:22:01.822Z,8.88
2018-11-07T04:27:03.995Z,8.86
2018-11-07T04:32:06.109Z,8.90
2018-11-07T04:37:08.238Z,8.86
2018-11-07T04:42:10.352Z,8.91
2018-11-07T04:47:12.451Z,8.99
2018-11-07T04:52:14.564Z,8.96
2018-11-07T04:57:16.691Z,8.89
2018-11-07T05:02:18.986Z,8.98
2018-11-07T05:07:21.075Z,8.92
2018-11-07T05:12:23.192Z,8.95
2018-11-07T05:17:25.355Z,8.91
2018-11-07T05:22:27.485Z,8.80
2018-11-07T05:27:29.639Z,8.85
2018-11-07T05:32:31.735Z,8.91
2018-11-07T05:37:33.876Z,8.68
2018-11-07T05:42:36.009Z,8.72
2018-11-07T05:47:38.354Z,8.90
2018-11-07T05:52:41.015Z,8.77
2018-11-07T05:57:43.122Z,8.57
2018-11-07T06:02:45.238Z,8.56
2018-11-07T06:07:47.363Z,8.49
2018-11-07T06:12:49.527Z,8.48
2018-11-07T06:17:58.465Z,8.57
2018-11-07T06:23:00.674Z,8.49
2018-11-07T06:28:02.791Z,8.49
2018-11-07T06:33:05.118Z,8.50
2018-11-07T06:38:07.254Z,8.60
2018-11-07T06:43:09.387Z,8.62
2018-11-07T06:48:11.487Z,8.55
2018-11-07T06:53:13.608Z,8.37
2018-11-07T06:58:15.703Z,8.58
2018-11-07T07:03:17.803Z,8.54
2018-11-07T07:08:19.972Z,8.61
2018-11-07T07:13:22.103Z,8.73
2018-11-07T07:18:24.229Z,8.80
2018-11-07T07:23:26.334Z,8.56
2018-11-07T07:28:28.482Z,8.59
2018-11-07T07:33:30.631Z,8.47
2018-11-07T07:38:32.706Z,8.67
2018-11-07T07:43:34.825Z,8.73
2018-11-07T07:48:36.950Z,8.35
2018-11-07T07:53:39.053Z,8.35
2018-11-07T07:58:41.147Z,8.38
2018-11-07T08:03:43.270Z,8.26
2018-11-07T08:08:45.411Z,8.23
2018-11-07T08:13:47.547Z,8.37
2018-11-07T08:18:49.653Z,8.45
2018-11-07T08:23:51.756Z,8.50
2018-11-07T08:28:53.982Z,8.64
2018-11-07T08:33:56.340Z,8.68
2018-11-07T08:38:58.470Z,8.65
2018-11-07T08:44:00.616Z,8.63
2018-11-07T08:49:02.744Z,8.74
2018-11-07T08:54:04.883Z,8.78
2018-11-07T08:59:07.004Z,8.75
2018-11-07T09:04:09.106Z,8.89
2018-11-07T09:09:11.573Z,9.17
2018-11-07T09:14:13.719Z,8.96
2018-11-07T09:19:15.818Z,9.21
2018-11-07T09:24:18.029Z,9.21
2018-11-07T09:29:20.463Z,9.16
2018-11-07T09:34:22.536Z,9.18
2018-11-07T09:39:24.723Z,9.37
2018-11-07T09:44:26.881Z,9.94
2018-11-07T09:49:29.030Z,9.89
2018-11-07T09:54:31.537Z,10.11
2018-11-07T09:59:33.790Z,10.03
2018-11-07T10:04:35.865Z,10.08
2018-11-07T10:09:38.008Z,10.05
2018-11-07T10:14:40.125Z,10.15
2018-11-07T10:19:42.463Z,10.09
2018-11-07T10:24:44.635Z,10.18
2018-11-07T10:29:47.175Z,10.37
2018-11-07T10:34:48.975Z,10.63
2018-11-07T10:39:51.246Z,10.92
2018-11-07T10:44:53.279Z,11.38
2018-11-07T10:49:55.462Z,11.42
2018-11-07T10:54:57.585Z,11.55
2018-11-07T10:59:59.758Z,11.61
2018-11-07T11:05:01.946Z,11.47
2018-11-07T11:10:04.277Z,11.64
2018-11-07T11:15:06.431Z,12.24
2018-11-07T11:20:10.593Z,13.57
2018-11-07T11:25:12.699Z,13.66
2018-11-07T11:30:14.847Z,13.71
2018-11-07T18:38:57.178Z,15.63
2018-11-07T18:43:59.443Z,12.77
2018-11-07T18:49:01.616Z,12.01
2018-11-07T18:54:04.715Z,11.58
2018-11-07T18:59:06.910Z,11.48
2018-11-07T19:04:09.220Z,11.37
2018-11-07T19:09:11.720Z,11.23
2018-11-07T19:14:14.210Z,11.07
2018-11-07T19:19:17.692Z,11.02
2018-11-07T19:24:20.254Z,11.02
2018-11-07T19:29:22.719Z,11.19
2018-11-07T19:34:25.627Z,11.15
2018-11-07T19:39:28.544Z,11.09
2018-11-07T19:44:34.337Z,11.08
2018-11-07T19:49:38.065Z,10.99
2018-11-07T19:54:40.631Z,10.97
2018-11-07T19:59:44.253Z,10.87
2018-11-07T20:04:49.231Z,10.91
2018-11-07T20:09:53.530Z,10.91
2018-11-07T20:14:59.739Z,11.03
2018-11-07T20:20:05.728Z,10.92
2018-11-07T20:25:11.963Z,10.94
2018-11-07T20:30:19.056Z,10.88
2018-11-07T20:35:22.964Z,10.82
2018-11-07T20:40:27.684Z,10.82
2018-11-07T20:45:31.359Z,10.72
2018-11-07T20:50:35.228Z,10.78
2018-11-07T20:55:38.426Z,10.86
2018-11-07T21:00:42.557Z,10.70
2018-11-07T21:05:45.160Z,10.75
2018-11-07T21:10:48.505Z,10.76
2018-11-07T21:15:51.219Z,10.71
2018-11-07T21:20:53.747Z,10.68
2018-11-07T21:25:56.096Z,10.64
2018-11-07T21:30:58.599Z,10.67
2018-11-07T21:36:00.789Z,10.58
2018-11-07T21:41:02.990Z,10.61
2018-11-07T21:46:05.235Z,10.57
2018-11-07T21:51:07.381Z,10.64
2018-11-07T21:56:09.513Z,10.69
2018-11-07T22:01:11.659Z,10.81
2018-11-07T22:06:13.810Z,10.86
2018-11-07T22:11:16.012Z,10.90
2018-11-07T22:16:18.157Z,10.84
2018-11-07T22:21:20.282Z,10.83
2018-11-07T22:26:22.429Z,10.83
2018-11-07T22:31:24.744Z,10.79
2018-11-07T22:36:26.855Z,10.62
2018-11-07T22:41:28.980Z,10.64
2018-11-07T22:46:31.159Z,10.72
2018-11-07T22:51:33.268Z,10.64
2018-11-07T22:56:35.391Z,10.81
2018-11-07T23:01:38.422Z,10.73
2018-11-07T23:06:40.572Z,10.74
2018-11-07T23:11:43.857Z,10.74
2018-11-07T23:16:46.014Z,10.58
2018-11-07T23:21:48.168Z,10.56
2018-11-07T23:26:50.326Z,10.65
2018-11-07T23:31:52.466Z,10.64
2018-11-07T23:36:54.578Z,10.67
2018-11-07T23:41:56.671Z,10.71
2018-11-07T23:46:58.808Z,10.69
2018-11-07T23:52:00.951Z,10.76
2018-11-07T23:57:03.083Z,10.66
